Four Nabucco — ZGAP9 — position and weather

sailwx.info

Track history (hours):
 
Tides and Currents Weather Stations Pressure Air Temp Water Temp Dewpoint Dewpoint Depression Visibility Wind Speed Wind Dir Waves Ship Positions

Four Nabucco

Last reported at 2014-Sep-11 14:33 UTC. Time now 2014-Sep-22 16:21 UTC.
Position N 26°52' W 079°55'.
Warning: this ship's position is 11 days out of date.

Length 180 m; draft 7.1 m.

Type: Cargo ship. MMSI: 319030700.

Date/timePositionNaut miles runAvg speedWind from/ knotsBaromVisibWave heightAir tempDewpointWater temp
2014-Sep-11 14:33N 26°52' W 079°55'28 4.7
2014-Sep-11 08:32N 26°24' W 079°50'1615.8
2014-Sep-11 07:33N 26°09' W 079°45'1716.7
2014-Sep-11 06:33N 25°53' W 079°46'203 6.1
2014-Sep-09 21:27N 27°35' W 083°02'1213.2
2014-Sep-09 20:34N 27°37' W 082°49'1212.4
2014-Sep-09 19:33N 27°41' W 082°35'  
2014-Sep-04 15:17N 27°54' W 082°25'7 0.3
2014-Sep-03 14:15N 27°48' W 082°29'2011.5
2014-Sep-03 12:33N 27°37' W 082°47'1311.4
2014-Sep-03 11:27N 27°35' W 083°01'  
Track history (hours):
 
Tides and Currents Weather Stations Pressure Air Temp Water Temp Dewpoint Dewpoint Depression Visibility Wind Speed Wind Dir Waves Ship Positions

Four Nabucco

Last reported at 2014-Sep-11 14:33 UTC. Time now 2014-Sep-22 16:21 UTC.
Position N 26°52' W 079°55'.
Warning: this ship's position is 11 days out of date.

Length 180 m; draft 7.1 m.

Type: Cargo ship. MMSI: 319030700.

Date/timePositionNaut miles runAvg speedWind from/ knotsBaromVisibWave heightAir tempDewpointWater temp
2014-Sep-11 14:33N 26°52' W 079°55'28 4.7
2014-Sep-11 08:32N 26°24' W 079°50'1615.8
2014-Sep-11 07:33N 26°09' W 079°45'1716.7
2014-Sep-11 06:33N 25°53' W 079°46'203 6.1
2014-Sep-09 21:27N 27°35' W 083°02'1213.2
2014-Sep-09 20:34N 27°37' W 082°49'1212.4
2014-Sep-09 19:33N 27°41' W 082°35'  
2014-Sep-04 15:17N 27°54' W 082°25'7 0.3
2014-Sep-03 14:15N 27°48' W 082°29'2011.5
2014-Sep-03 12:33N 27°37' W 082°47'1311.4
2014-Sep-03 11:27N 27°35' W 083°01'  

Dump ship's entire track history